sensor_id;sensor_type;location;lat;lon;timestamp;P1;durP1;ratioP1;P2;durP2;ratioP2
64936;SDS011;51452;47.698;19.050;2023-02-02T00:00:49;4.00;;;2.07;;
64936;SDS011;51452;47.698;19.050;2023-02-02T00:03:15;6.10;;;2.17;;
64936;SDS011;51452;47.698;19.050;2023-02-02T00:05:47;4.20;;;1.70;;
64936;SDS011;51452;47.698;19.050;2023-02-02T00:08:14;2.60;;;1.60;;
64936;SDS011;51452;47.698;19.050;2023-02-02T00:10:40;4.20;;;2.00;;
64936;SDS011;51452;47.698;19.050;2023-02-02T00:13:05;6.10;;;2.53;;
64936;SDS011;51452;47.698;19.050;2023-02-02T00:15:30;4.10;;;2.10;;
64936;SDS011;51452;47.698;19.050;2023-02-02T00:17:56;7.90;;;2.30;;
64936;SDS011;51452;47.698;19.050;2023-02-02T00:20:21;5.07;;;2.03;;
64936;SDS011;51452;47.698;19.050;2023-02-02T00:22:48;6.20;;;2.30;;
64936;SDS011;51452;47.698;19.050;2023-02-02T00:25:13;8.33;;;1.80;;
64936;SDS011;51452;47.698;19.050;2023-02-02T00:27:39;4.13;;;2.30;;
64936;SDS011;51452;47.698;19.050;2023-02-02T00:30:05;6.93;;;2.63;;
64936;SDS011;51452;47.698;19.050;2023-02-02T00:32:31;4.87;;;2.30;;
64936;SDS011;51452;47.698;19.050;2023-02-02T00:34:56;4.23;;;1.97;;
64936;SDS011;51452;47.698;19.050;2023-02-02T00:37:22;3.37;;;1.97;;
64936;SDS011;51452;47.698;19.050;2023-02-02T00:39:47;6.80;;;2.30;;
64936;SDS011;51452;47.698;19.050;2023-02-02T00:42:12;5.17;;;2.40;;
64936;SDS011;51452;47.698;19.050;2023-02-02T00:44:38;4.50;;;1.97;;
64936;SDS011;51452;47.698;19.050;2023-02-02T00:47:23;2.63;;;1.70;;
64936;SDS011;51452;47.698;19.050;2023-02-02T00:49:48;4.10;;;1.87;;
64936;SDS011;51452;47.698;19.050;2023-02-02T00:52:14;6.30;;;1.67;;
64936;SDS011;51452;47.698;19.050;2023-02-02T00:54:39;4.03;;;2.27;;
64936;SDS011;51452;47.698;19.050;2023-02-02T00:57:05;6.67;;;2.20;;
64936;SDS011;51452;47.698;19.050;2023-02-02T00:59:30;4.87;;;2.30;;
64936;SDS011;51452;47.698;19.050;2023-02-02T01:01:56;4.60;;;2.03;;
64936;SDS011;51452;47.698;19.050;2023-02-02T01:04:22;6.00;;;2.23;;
64936;SDS011;51452;47.698;19.050;2023-02-02T01:06:47;5.33;;;2.10;;
64936;SDS011;51452;47.698;19.050;2023-02-02T01:09:13;6.60;;;1.80;;
64936;SDS011;51452;47.698;19.050;2023-02-02T01:11:38;5.43;;;1.77;;
64936;SDS011;51452;47.698;19.050;2023-02-02T01:14:03;5.70;;;1.53;;
64936;SDS011;51452;47.698;19.050;2023-02-02T01:16:29;5.47;;;1.40;;
64936;SDS011;51452;47.698;19.050;2023-02-02T01:18:55;5.63;;;1.13;;
64936;SDS011;51452;47.698;19.050;2023-02-02T01:21:20;3.37;;;1.27;;
64936;SDS011;51452;47.698;19.050;2023-02-02T01:23:46;2.50;;;1.00;;
64936;SDS011;51452;47.698;19.050;2023-02-02T01:26:12;2.53;;;1.10;;
64936;SDS011;51452;47.698;19.050;2023-02-02T01:28:38;2.13;;;1.20;;
64936;SDS011;51452;47.698;19.050;2023-02-02T01:31:11;3.87;;;1.37;;
64936;SDS011;51452;47.698;19.050;2023-02-02T01:33:39;3.08;;;1.45;;
64936;SDS011;51452;47.698;19.050;2023-02-02T01:36:05;4.53;;;1.43;;
64936;SDS011;51452;47.698;19.050;2023-02-02T01:38:32;3.13;;;1.30;;
64936;SDS011;51452;47.698;19.050;2023-02-02T01:40:58;2.67;;;1.27;;
64936;SDS011;51452;47.698;19.050;2023-02-02T01:45:51;4.07;;;1.50;;
64936;SDS011;51452;47.698;19.050;2023-02-02T01:48:21;4.20;;;2.17;;
64936;SDS011;51452;47.698;19.050;2023-02-02T01:50:52;3.20;;;1.60;;
64936;SDS011;51452;47.698;19.050;2023-02-02T01:53:20;2.40;;;1.33;;
64936;SDS011;51452;47.698;19.050;2023-02-02T01:55:47;3.00;;;1.40;;
64936;SDS011;51452;47.698;19.050;2023-02-02T01:58:27;4.30;;;1.47;;
64936;SDS011;51452;47.698;19.050;2023-02-02T02:00:55;2.97;;;1.40;;
64936;SDS011;51452;47.698;19.050;2023-02-02T02:03:22;5.37;;;1.20;;
64936;SDS011;51452;47.698;19.050;2023-02-02T02:05:50;3.20;;;1.10;;
64936;SDS011;51452;47.698;19.050;2023-02-02T02:08:22;1.13;;;0.87;;
64936;SDS011;51452;47.698;19.050;2023-02-02T02:10:52;1.93;;;1.00;;
64936;SDS011;51452;47.698;19.050;2023-02-02T02:13:18;2.50;;;0.97;;
64936;SDS011;51452;47.698;19.050;2023-02-02T02:16:07;1.40;;;0.90;;
64936;SDS011;51452;47.698;19.050;2023-02-02T02:19:00;2.57;;;1.03;;
64936;SDS011;51452;47.698;19.050;2023-02-02T02:30:27;2.93;;;1.00;;
64936;SDS011;51452;47.698;19.050;2023-02-02T02:33:03;1.40;;;1.00;;
64936;SDS011;51452;47.698;19.050;2023-02-02T02:38:03;4.03;;;1.30;;
64936;SDS011;51452;47.698;19.050;2023-02-02T02:40:56;5.30;;;1.37;;
64936;SDS011;51452;47.698;19.050;2023-02-02T02:43:28;2.60;;;1.43;;
64936;SDS011;51452;47.698;19.050;2023-02-02T02:45:56;4.83;;;1.90;;
64936;SDS011;51452;47.698;19.050;2023-02-02T02:48:21;3.70;;;1.33;;
64936;SDS011;51452;47.698;19.050;2023-02-02T02:50:47;1.50;;;1.20;;
64936;SDS011;51452;47.698;19.050;2023-02-02T02:53:15;1.97;;;1.27;;
64936;SDS011;51452;47.698;19.050;2023-02-02T02:56:09;2.97;;;1.17;;
64936;SDS011;51452;47.698;19.050;2023-02-02T03:06:47;4.33;;;1.93;;
64936;SDS011;51452;47.698;19.050;2023-02-02T03:09:18;2.00;;;1.30;;
64936;SDS011;51452;47.698;19.050;2023-02-02T03:11:47;2.63;;;1.30;;
64936;SDS011;51452;47.698;19.050;2023-02-02T03:14:12;3.97;;;2.10;;
64936;SDS011;51452;47.698;19.050;2023-02-02T03:16:38;3.53;;;1.20;;
64936;SDS011;51452;47.698;19.050;2023-02-02T03:19:04;4.57;;;1.40;;
64936;SDS011;51452;47.698;19.050;2023-02-02T03:21:31;1.93;;;1.30;;
64936;SDS011;51452;47.698;19.050;2023-02-02T03:23:57;8.30;;;1.83;;
64936;SDS011;51452;47.698;19.050;2023-02-02T03:26:22;3.20;;;1.67;;
64936;SDS011;51452;47.698;19.050;2023-02-02T03:28:49;3.90;;;1.60;;
64936;SDS011;51452;47.698;19.050;2023-02-02T03:31:15;4.47;;;1.67;;
64936;SDS011;51452;47.698;19.050;2023-02-02T03:33:41;4.30;;;1.50;;
64936;SDS011;51452;47.698;19.050;2023-02-02T03:36:06;2.83;;;1.70;;
64936;SDS011;51452;47.698;19.050;2023-02-02T03:38:32;2.43;;;1.60;;
64936;SDS011;51452;47.698;19.050;2023-02-02T03:40:57;2.33;;;1.70;;
64936;SDS011;51452;47.698;19.050;2023-02-02T03:43:23;4.03;;;1.63;;
64936;SDS011;51452;47.698;19.050;2023-02-02T03:45:59;3.37;;;2.00;;
64936;SDS011;51452;47.698;19.050;2023-02-02T03:48:26;4.60;;;1.90;;
64936;SDS011;51452;47.698;19.050;2023-02-02T03:50:52;2.27;;;1.70;;
64936;SDS011;51452;47.698;19.050;2023-02-02T03:53:18;3.53;;;2.00;;
64936;SDS011;51452;47.698;19.050;2023-02-02T03:55:43;3.47;;;1.80;;
64936;SDS011;51452;47.698;19.050;2023-02-02T03:58:09;2.30;;;1.40;;
64936;SDS011;51452;47.698;19.050;2023-02-02T04:00:34;4.33;;;1.50;;
64936;SDS011;51452;47.698;19.050;2023-02-02T04:03:00;3.63;;;1.63;;
64936;SDS011;51452;47.698;19.050;2023-02-02T04:05:25;5.43;;;1.57;;
64936;SDS011;51452;47.698;19.050;2023-02-02T04:07:51;6.23;;;1.60;;
64936;SDS011;51452;47.698;19.050;2023-02-02T04:10:17;4.30;;;1.47;;
64936;SDS011;51452;47.698;19.050;2023-02-02T04:12:42;6.13;;;1.90;;
64936;SDS011;51452;47.698;19.050;2023-02-02T04:15:08;4.90;;;2.00;;
64936;SDS011;51452;47.698;19.050;2023-02-02T04:17:34;3.60;;;1.57;;
64936;SDS011;51452;47.698;19.050;2023-02-02T04:19:59;4.33;;;1.47;;
64936;SDS011;51452;47.698;19.050;2023-02-02T04:22:26;3.00;;;1.20;;
64936;SDS011;51452;47.698;19.050;2023-02-02T04:24:51;3.93;;;1.50;;
64936;SDS011;51452;47.698;19.050;2023-02-02T04:27:17;4.80;;;1.70;;
64936;SDS011;51452;47.698;19.050;2023-02-02T04:29:42;6.03;;;1.80;;
64936;SDS011;51452;47.698;19.050;2023-02-02T04:32:08;4.57;;;1.27;;
64936;SDS011;51452;47.698;19.050;2023-02-02T04:34:33;2.33;;;1.43;;
64936;SDS011;51452;47.698;19.050;2023-02-02T04:36:59;5.07;;;1.47;;
64936;SDS011;51452;47.698;19.050;2023-02-02T04:39:24;2.03;;;1.50;;
64936;SDS011;51452;47.698;19.050;2023-02-02T04:41:50;1.67;;;0.97;;
64936;SDS011;51452;47.698;19.050;2023-02-02T04:44:15;4.27;;;1.40;;
64936;SDS011;51452;47.698;19.050;2023-02-02T04:46:44;4.80;;;1.40;;
64936;SDS011;51452;47.698;19.050;2023-02-02T04:49:09;5.47;;;1.40;;
64936;SDS011;51452;47.698;19.050;2023-02-02T04:51:36;5.87;;;1.50;;
64936;SDS011;51452;47.698;19.050;2023-02-02T04:54:02;5.83;;;1.40;;
64936;SDS011;51452;47.698;19.050;2023-02-02T04:56:28;3.80;;;1.20;;
64936;SDS011;51452;47.698;19.050;2023-02-02T04:58:53;3.33;;;1.30;;
64936;SDS011;51452;47.698;19.050;2023-02-02T05:01:20;4.80;;;1.20;;
64936;SDS011;51452;47.698;19.050;2023-02-02T05:03:46;6.70;;;1.33;;
64936;SDS011;51452;47.698;19.050;2023-02-02T05:06:12;3.20;;;1.00;;
64936;SDS011;51452;47.698;19.050;2023-02-02T05:08:38;2.67;;;1.10;;
64936;SDS011;51452;47.698;19.050;2023-02-02T05:11:07;5.27;;;1.17;;
64936;SDS011;51452;47.698;19.050;2023-02-02T05:13:34;5.03;;;1.20;;
64936;SDS011;51452;47.698;19.050;2023-02-02T05:15:59;3.73;;;1.30;;
64936;SDS011;51452;47.698;19.050;2023-02-02T05:18:25;4.93;;;1.20;;
64936;SDS011;51452;47.698;19.050;2023-02-02T05:20:50;4.00;;;1.13;;
64936;SDS011;51452;47.698;19.050;2023-02-02T05:23:16;2.10;;;0.93;;
64936;SDS011;51452;47.698;19.050;2023-02-02T05:25:42;5.27;;;1.30;;
64936;SDS011;51452;47.698;19.050;2023-02-02T05:28:08;1.93;;;1.03;;
64936;SDS011;51452;47.698;19.050;2023-02-02T05:30:33;4.27;;;1.13;;
64936;SDS011;51452;47.698;19.050;2023-02-02T05:32:58;2.40;;;1.13;;
64936;SDS011;51452;47.698;19.050;2023-02-02T05:35:24;3.90;;;1.23;;
64936;SDS011;51452;47.698;19.050;2023-02-02T05:37:49;3.57;;;1.20;;
64936;SDS011;51452;47.698;19.050;2023-02-02T05:40:15;5.00;;;1.10;;
64936;SDS011;51452;47.698;19.050;2023-02-02T05:42:40;4.67;;;1.43;;
64936;SDS011;51452;47.698;19.050;2023-02-02T05:45:06;3.87;;;1.57;;
64936;SDS011;51452;47.698;19.050;2023-02-02T05:47:32;8.97;;;1.53;;
64936;SDS011;51452;47.698;19.050;2023-02-02T05:49:59;4.30;;;1.80;;
64936;SDS011;51452;47.698;19.050;2023-02-02T05:52:26;2.47;;;1.40;;
64936;SDS011;51452;47.698;19.050;2023-02-02T05:54:53;5.50;;;1.80;;
64936;SDS011;51452;47.698;19.050;2023-02-02T05:57:18;2.97;;;1.17;;
64936;SDS011;51452;47.698;19.050;2023-02-02T05:59:44;5.43;;;1.10;;
64936;SDS011;51452;47.698;19.050;2023-02-02T06:02:11;3.43;;;1.40;;
64936;SDS011;51452;47.698;19.050;2023-02-02T06:04:36;5.70;;;1.67;;
64936;SDS011;51452;47.698;19.050;2023-02-02T06:07:02;9.43;;;2.20;;
64936;SDS011;51452;47.698;19.050;2023-02-02T06:09:27;4.37;;;1.40;;
64936;SDS011;51452;47.698;19.050;2023-02-02T06:11:52;3.40;;;1.10;;
64936;SDS011;51452;47.698;19.050;2023-02-02T06:14:18;1.77;;;1.10;;
64936;SDS011;51452;47.698;19.050;2023-02-02T06:16:43;1.93;;;0.80;;
64936;SDS011;51452;47.698;19.050;2023-02-02T06:19:08;2.90;;;1.03;;
64936;SDS011;51452;47.698;19.050;2023-02-02T06:21:34;4.53;;;1.20;;
64936;SDS011;51452;47.698;19.050;2023-02-02T06:23:59;2.43;;;1.30;;
64936;SDS011;51452;47.698;19.050;2023-02-02T06:26:26;2.07;;;1.10;;
64936;SDS011;51452;47.698;19.050;2023-02-02T06:28:51;4.57;;;1.00;;
64936;SDS011;51452;47.698;19.050;2023-02-02T06:31:18;3.87;;;1.10;;
64936;SDS011;51452;47.698;19.050;2023-02-02T06:33:45;3.20;;;1.30;;
64936;SDS011;51452;47.698;19.050;2023-02-02T06:36:11;3.60;;;0.90;;
64936;SDS011;51452;47.698;19.050;2023-02-02T06:38:36;1.93;;;1.13;;
64936;SDS011;51452;47.698;19.050;2023-02-02T06:41:02;3.27;;;1.30;;
64936;SDS011;51452;47.698;19.050;2023-02-02T06:43:28;3.93;;;1.03;;
64936;SDS011;51452;47.698;19.050;2023-02-02T06:45:55;4.00;;;1.20;;
64936;SDS011;51452;47.698;19.050;2023-02-02T06:48:21;5.63;;;1.30;;
64936;SDS011;51452;47.698;19.050;2023-02-02T06:50:47;4.50;;;1.17;;
64936;SDS011;51452;47.698;19.050;2023-02-02T06:53:12;4.13;;;1.40;;
64936;SDS011;51452;47.698;19.050;2023-02-02T06:55:37;2.00;;;0.87;;
64936;SDS011;51452;47.698;19.050;2023-02-02T06:58:03;1.53;;;0.80;;
64936;SDS011;51452;47.698;19.050;2023-02-02T07:00:28;3.23;;;1.17;;
64936;SDS011;51452;47.698;19.050;2023-02-02T07:02:54;3.37;;;0.87;;
64936;SDS011;51452;47.698;19.050;2023-02-02T07:05:20;2.07;;;0.80;;
64936;SDS011;51452;47.698;19.050;2023-02-02T07:07:48;2.30;;;0.87;;
64936;SDS011;51452;47.698;19.050;2023-02-02T07:10:14;2.63;;;1.17;;
64936;SDS011;51452;47.698;19.050;2023-02-02T07:12:40;2.40;;;0.90;;
64936;SDS011;51452;47.698;19.050;2023-02-02T07:15:05;3.87;;;1.20;;
64936;SDS011;51452;47.698;19.050;2023-02-02T07:17:31;2.90;;;1.00;;
64936;SDS011;51452;47.698;19.050;2023-02-02T07:19:57;2.83;;;0.90;;
64936;SDS011;51452;47.698;19.050;2023-02-02T07:22:22;2.57;;;0.87;;
64936;SDS011;51452;47.698;19.050;2023-02-02T07:24:48;3.57;;;0.90;;
64936;SDS011;51452;47.698;19.050;2023-02-02T07:27:13;3.80;;;1.03;;
64936;SDS011;51452;47.698;19.050;2023-02-02T07:29:38;3.57;;;1.27;;
64936;SDS011;51452;47.698;19.050;2023-02-02T07:32:04;7.67;;;1.07;;
64936;SDS011;51452;47.698;19.050;2023-02-02T07:34:29;5.00;;;1.23;;
64936;SDS011;51452;47.698;19.050;2023-02-02T07:36:56;7.30;;;1.20;;
64936;SDS011;51452;47.698;19.050;2023-02-02T07:39:21;1.77;;;0.90;;
64936;SDS011;51452;47.698;19.050;2023-02-02T07:41:47;5.23;;;1.13;;
64936;SDS011;51452;47.698;19.050;2023-02-02T07:44:12;2.07;;;0.87;;
64936;SDS011;51452;47.698;19.050;2023-02-02T07:46:42;5.53;;;1.00;;
64936;SDS011;51452;47.698;19.050;2023-02-02T07:49:15;2.00;;;1.00;;
64936;SDS011;51452;47.698;19.050;2023-02-02T07:51:42;5.17;;;1.03;;
64936;SDS011;51452;47.698;19.050;2023-02-02T07:54:07;1.90;;;1.00;;
64936;SDS011;51452;47.698;19.050;2023-02-02T07:56:33;5.43;;;1.33;;
64936;SDS011;51452;47.698;19.050;2023-02-02T07:58:59;1.97;;;0.93;;
64936;SDS011;51452;47.698;19.050;2023-02-02T08:01:25;3.20;;;1.50;;
64936;SDS011;51452;47.698;19.050;2023-02-02T08:03:52;3.63;;;0.90;;
64936;SDS011;51452;47.698;19.050;2023-02-02T08:08:48;2.47;;;1.00;;
64936;SDS011;51452;47.698;19.050;2023-02-02T08:11:15;2.40;;;0.90;;
64936;SDS011;51452;47.698;19.050;2023-02-02T08:13:43;3.20;;;1.17;;
64936;SDS011;51452;47.698;19.050;2023-02-02T08:16:09;3.10;;;0.90;;
64936;SDS011;51452;47.698;19.050;2023-02-02T08:18:35;2.90;;;0.80;;
64936;SDS011;51452;47.698;19.050;2023-02-02T08:21:01;2.80;;;0.90;;
64936;SDS011;51452;47.698;19.050;2023-02-02T08:23:28;2.37;;;1.20;;
64936;SDS011;51452;47.698;19.050;2023-02-02T08:26:03;2.80;;;0.60;;
64936;SDS011;51452;47.698;19.050;2023-02-02T08:28:53;4.80;;;0.90;;
64936;SDS011;51452;47.698;19.050;2023-02-02T08:31:22;3.83;;;1.00;;
64936;SDS011;51452;47.698;19.050;2023-02-02T08:33:49;3.73;;;0.83;;
64936;SDS011;51452;47.698;19.050;2023-02-02T08:36:16;2.97;;;0.87;;
64936;SDS011;51452;47.698;19.050;2023-02-02T08:38:43;3.23;;;0.90;;
64936;SDS011;51452;47.698;19.050;2023-02-02T08:41:10;1.93;;;0.90;;
64936;SDS011;51452;47.698;19.050;2023-02-02T08:43:37;4.37;;;0.90;;
64936;SDS011;51452;47.698;19.050;2023-02-02T08:46:03;2.33;;;0.57;;
64936;SDS011;51452;47.698;19.050;2023-02-02T08:48:29;3.07;;;0.90;;
64936;SDS011;51452;47.698;19.050;2023-02-02T08:50:55;2.17;;;0.90;;
64936;SDS011;51452;47.698;19.050;2023-02-02T08:53:22;1.50;;;1.07;;
64936;SDS011;51452;47.698;19.050;2023-02-02T08:55:56;2.57;;;0.80;;
64936;SDS011;51452;47.698;19.050;2023-02-02T08:58:30;1.83;;;0.80;;
64936;SDS011;51452;47.698;19.050;2023-02-02T09:03:40;1.60;;;0.70;;
64936;SDS011;51452;47.698;19.050;2023-02-02T09:06:08;5.10;;;1.30;;
64936;SDS011;51452;47.698;19.050;2023-02-02T09:08:34;1.30;;;0.70;;
64936;SDS011;51452;47.698;19.050;2023-02-02T09:11:08;2.73;;;1.00;;
64936;SDS011;51452;47.698;19.050;2023-02-02T09:13:35;1.70;;;0.85;;
64936;SDS011;51452;47.698;19.050;2023-02-02T09:16:03;2.97;;;0.90;;
64936;SDS011;51452;47.698;19.050;2023-02-02T09:18:30;5.17;;;0.83;;
64936;SDS011;51452;47.698;19.050;2023-02-02T09:21:00;3.70;;;0.77;;
64936;SDS011;51452;47.698;19.050;2023-02-02T09:23:30;1.70;;;0.87;;
64936;SDS011;51452;47.698;19.050;2023-02-02T09:25:57;3.00;;;0.80;;
64936;SDS011;51452;47.698;19.050;2023-02-02T09:28:33;2.73;;;0.90;;
64936;SDS011;51452;47.698;19.050;2023-02-02T09:30:59;3.43;;;0.83;;
64936;SDS011;51452;47.698;19.050;2023-02-02T09:33:25;3.13;;;1.00;;
64936;SDS011;51452;47.698;19.050;2023-02-02T09:35:51;2.63;;;0.70;;
64936;SDS011;51452;47.698;19.050;2023-02-02T09:38:16;3.30;;;0.90;;
64936;SDS011;51452;47.698;19.050;2023-02-02T09:40:41;4.97;;;1.10;;
64936;SDS011;51452;47.698;19.050;2023-02-02T09:48:32;2.58;;;0.80;;
64936;SDS011;51452;47.698;19.050;2023-02-02T09:51:12;4.93;;;1.07;;
64936;SDS011;51452;47.698;19.050;2023-02-02T09:53:52;2.47;;;0.90;;
64936;SDS011;51452;47.698;19.050;2023-02-02T09:56:26;2.13;;;0.93;;
64936;SDS011;51452;47.698;19.050;2023-02-02T09:58:58;2.77;;;0.80;;
64936;SDS011;51452;47.698;19.050;2023-02-02T10:01:30;3.17;;;0.80;;
64936;SDS011;51452;47.698;19.050;2023-02-02T10:04:14;2.37;;;0.90;;
64936;SDS011;51452;47.698;19.050;2023-02-02T10:06:49;3.33;;;0.77;;
64936;SDS011;51452;47.698;19.050;2023-02-02T10:18:00;1.63;;;0.80;;
64936;SDS011;51452;47.698;19.050;2023-02-02T10:26:03;3.57;;;1.07;;
64936;SDS011;51452;47.698;19.050;2023-02-02T10:31:21;5.10;;;0.90;;
64936;SDS011;51452;47.698;19.050;2023-02-02T10:34:21;2.67;;;0.90;;
64936;SDS011;51452;47.698;19.050;2023-02-02T10:44:59;4.50;;;0.90;;
64936;SDS011;51452;47.698;19.050;2023-02-02T10:47:32;2.50;;;1.10;;
64936;SDS011;51452;47.698;19.050;2023-02-02T10:52:36;2.63;;;1.07;;
64936;SDS011;51452;47.698;19.050;2023-02-02T11:02:58;7.00;;;1.20;;
64936;SDS011;51452;47.698;19.050;2023-02-02T11:05:28;7.73;;;1.03;;
64936;SDS011;51452;47.698;19.050;2023-02-02T11:08:48;4.80;;;1.00;;
64936;SDS011;51452;47.698;19.050;2023-02-02T11:11:17;3.95;;;1.00;;
64936;SDS011;51452;47.698;19.050;2023-02-02T11:13:50;4.53;;;1.00;;
64936;SDS011;51452;47.698;19.050;2023-02-02T11:16:20;4.03;;;1.30;;
64936;SDS011;51452;47.698;19.050;2023-02-02T11:18:47;2.30;;;0.90;;
64936;SDS011;51452;47.698;19.050;2023-02-02T11:21:26;5.40;;;0.90;;
64936;SDS011;51452;47.698;19.050;2023-02-02T11:24:14;7.70;;;0.90;;
64936;SDS011;51452;47.698;19.050;2023-02-02T11:26:58;4.20;;;1.00;;
64936;SDS011;51452;47.698;19.050;2023-02-02T11:29:31;3.37;;;1.03;;
64936;SDS011;51452;47.698;19.050;2023-02-02T11:31:57;4.43;;;1.23;;
64936;SDS011;51452;47.698;19.050;2023-02-02T11:34:41;5.23;;;1.10;;
64936;SDS011;51452;47.698;19.050;2023-02-02T11:37:13;3.13;;;0.90;;
64936;SDS011;51452;47.698;19.050;2023-02-02T11:39:44;4.83;;;0.90;;
64936;SDS011;51452;47.698;19.050;2023-02-02T11:42:14;6.00;;;1.00;;
64936;SDS011;51452;47.698;19.050;2023-02-02T11:44:52;5.13;;;1.50;;
64936;SDS011;51452;47.698;19.050;2023-02-02T11:47:24;5.30;;;1.07;;
64936;SDS011;51452;47.698;19.050;2023-02-02T11:49:51;3.23;;;1.10;;
64936;SDS011;51452;47.698;19.050;2023-02-02T11:52:22;4.10;;;1.00;;
64936;SDS011;51452;47.698;19.050;2023-02-02T11:54:50;2.70;;;1.20;;
64936;SDS011;51452;47.698;19.050;2023-02-02T11:57:19;3.73;;;1.20;;
64936;SDS011;51452;47.698;19.050;2023-02-02T11:59:47;4.63;;;1.20;;
64936;SDS011;51452;47.698;19.050;2023-02-02T12:02:28;5.27;;;1.20;;
64936;SDS011;51452;47.698;19.050;2023-02-02T12:05:12;3.43;;;1.00;;
64936;SDS011;51452;47.698;19.050;2023-02-02T12:07:43;6.33;;;1.13;;
64936;SDS011;51452;47.698;19.050;2023-02-02T12:10:17;5.90;;;1.53;;
64936;SDS011;51452;47.698;19.050;2023-02-02T12:20:56;3.77;;;1.27;;
64936;SDS011;51452;47.698;19.050;2023-02-02T12:34:21;1.37;;;0.80;;
64936;SDS011;51452;47.698;19.050;2023-02-02T12:45:03;3.60;;;0.90;;
64936;SDS011;51452;47.698;19.050;2023-02-02T12:53:28;4.03;;;0.90;;
64936;SDS011;51452;47.698;19.050;2023-02-02T13:12:22;3.40;;;0.80;;
64936;SDS011;51452;47.698;19.050;2023-02-02T13:14:53;3.63;;;1.00;;
64936;SDS011;51452;47.698;19.050;2023-02-02T13:17:27;3.23;;;1.43;;
64936;SDS011;51452;47.698;19.050;2023-02-02T13:20:21;2.37;;;0.97;;
64936;SDS011;51452;47.698;19.050;2023-02-02T13:22:54;2.53;;;1.17;;
64936;SDS011;51452;47.698;19.050;2023-02-02T13:25:28;7.13;;;1.33;;
64936;SDS011;51452;47.698;19.050;2023-02-02T13:27:57;1.93;;;0.97;;
64936;SDS011;51452;47.698;19.050;2023-02-02T13:30:26;2.63;;;0.93;;
64936;SDS011;51452;47.698;19.050;2023-02-02T13:33:42;3.73;;;1.30;;
64936;SDS011;51452;47.698;19.050;2023-02-02T13:35:54;4.73;;;1.07;;
64936;SDS011;51452;47.698;19.050;2023-02-02T13:38:25;3.53;;;1.23;;
64936;SDS011;51452;47.698;19.050;2023-02-02T13:40:54;5.07;;;1.43;;
64936;SDS011;51452;47.698;19.050;2023-02-02T13:43:31;7.03;;;1.10;;
64936;SDS011;51452;47.698;19.050;2023-02-02T14:04:58;3.73;;;1.20;;
64936;SDS011;51452;47.698;19.050;2023-02-02T14:07:36;5.30;;;1.10;;
64936;SDS011;51452;47.698;19.050;2023-02-02T14:10:18;4.00;;;1.13;;
64936;SDS011;51452;47.698;19.050;2023-02-02T14:12:48;1.60;;;1.00;;
64936;SDS011;51452;47.698;19.050;2023-02-02T14:15:14;6.83;;;1.20;;
64936;SDS011;51452;47.698;19.050;2023-02-02T14:20:09;4.22;;;1.25;;
64936;SDS011;51452;47.698;19.050;2023-02-02T14:26:09;3.43;;;0.97;;
64936;SDS011;51452;47.698;19.050;2023-02-02T14:28:39;4.87;;;1.30;;
64936;SDS011;51452;47.698;19.050;2023-02-02T14:31:28;3.80;;;0.88;;
64936;SDS011;51452;47.698;19.050;2023-02-02T14:47:59;4.23;;;2.03;;
64936;SDS011;51452;47.698;19.050;2023-02-02T15:01:10;8.00;;;1.17;;
64936;SDS011;51452;47.698;19.050;2023-02-02T15:06:33;4.50;;;1.50;;
64936;SDS011;51452;47.698;19.050;2023-02-02T15:17:44;3.63;;;1.17;;
64936;SDS011;51452;47.698;19.050;2023-02-02T15:28:01;4.90;;;1.50;;
64936;SDS011;51452;47.698;19.050;2023-02-02T15:30:41;3.87;;;0.97;;
64936;SDS011;51452;47.698;19.050;2023-02-02T15:33:27;5.10;;;1.30;;
64936;SDS011;51452;47.698;19.050;2023-02-02T15:35:55;2.70;;;1.27;;
64936;SDS011;51452;47.698;19.050;2023-02-02T15:38:23;2.47;;;1.40;;
64936;SDS011;51452;47.698;19.050;2023-02-02T15:40:58;3.90;;;1.45;;
64936;SDS011;51452;47.698;19.050;2023-02-02T15:43:31;7.63;;;1.20;;
64936;SDS011;51452;47.698;19.050;2023-02-02T15:46:03;3.33;;;1.70;;
64936;SDS011;51452;47.698;19.050;2023-02-02T15:48:31;5.30;;;1.30;;
64936;SDS011;51452;47.698;19.050;2023-02-02T15:51:15;4.13;;;1.30;;
64936;SDS011;51452;47.698;19.050;2023-02-02T15:56:17;5.10;;;1.20;;
64936;SDS011;51452;47.698;19.050;2023-02-02T15:58:45;2.53;;;1.37;;
64936;SDS011;51452;47.698;19.050;2023-02-02T16:01:16;4.57;;;1.10;;
64936;SDS011;51452;47.698;19.050;2023-02-02T16:03:48;4.43;;;1.27;;
64936;SDS011;51452;47.698;19.050;2023-02-02T16:06:19;5.25;;;1.50;;
64936;SDS011;51452;47.698;19.050;2023-02-02T16:08:45;5.60;;;1.40;;
64936;SDS011;51452;47.698;19.050;2023-02-02T16:11:12;3.17;;;1.00;;
64936;SDS011;51452;47.698;19.050;2023-02-02T16:13:43;2.73;;;1.10;;
64936;SDS011;51452;47.698;19.050;2023-02-02T16:16:23;3.93;;;1.43;;
64936;SDS011;51452;47.698;19.050;2023-02-02T16:19:00;3.67;;;1.27;;
64936;SDS011;51452;47.698;19.050;2023-02-02T16:21:26;6.60;;;1.37;;
64936;SDS011;51452;47.698;19.050;2023-02-02T16:23:53;4.27;;;1.47;;
64936;SDS011;51452;47.698;19.050;2023-02-02T16:26:21;6.00;;;1.57;;
64936;SDS011;51452;47.698;19.050;2023-02-02T16:28:50;5.37;;;1.30;;
64936;SDS011;51452;47.698;19.050;2023-02-02T16:31:15;7.27;;;1.70;;
64936;SDS011;51452;47.698;19.050;2023-02-02T16:33:44;5.70;;;1.80;;
64936;SDS011;51452;47.698;19.050;2023-02-02T16:36:17;5.20;;;1.20;;
64936;SDS011;51452;47.698;19.050;2023-02-02T16:38:43;5.83;;;1.30;;
64936;SDS011;51452;47.698;19.050;2023-02-02T16:41:09;3.10;;;1.30;;
64936;SDS011;51452;47.698;19.050;2023-02-02T16:43:40;5.03;;;1.57;;
64936;SDS011;51452;47.698;19.050;2023-02-02T16:46:10;6.37;;;1.60;;
64936;SDS011;51452;47.698;19.050;2023-02-02T16:48:45;4.63;;;1.37;;
64936;SDS011;51452;47.698;19.050;2023-02-02T16:56:25;3.50;;;1.20;;
64936;SDS011;51452;47.698;19.050;2023-02-02T16:59:25;3.97;;;1.30;;
64936;SDS011;51452;47.698;19.050;2023-02-02T17:01:51;3.40;;;1.23;;
64936;SDS011;51452;47.698;19.050;2023-02-02T17:04:32;6.23;;;1.27;;
64936;SDS011;51452;47.698;19.050;2023-02-02T17:07:11;4.13;;;1.20;;
64936;SDS011;51452;47.698;19.050;2023-02-02T17:09:43;5.93;;;1.40;;
64936;SDS011;51452;47.698;19.050;2023-02-02T17:17:20;5.60;;;1.30;;
64936;SDS011;51452;47.698;19.050;2023-02-02T17:19:46;3.90;;;1.20;;
64936;SDS011;51452;47.698;19.050;2023-02-02T17:22:12;4.57;;;1.20;;
64936;SDS011;51452;47.698;19.050;2023-02-02T17:24:42;5.27;;;1.20;;
64936;SDS011;51452;47.698;19.050;2023-02-02T17:27:13;6.67;;;1.27;;
64936;SDS011;51452;47.698;19.050;2023-02-02T17:29:42;5.17;;;1.50;;
64936;SDS011;51452;47.698;19.050;2023-02-02T17:32:10;4.17;;;1.13;;
64936;SDS011;51452;47.698;19.050;2023-02-02T17:34:37;2.87;;;1.10;;
64936;SDS011;51452;47.698;19.050;2023-02-02T17:37:03;4.37;;;1.43;;
64936;SDS011;51452;47.698;19.050;2023-02-02T17:39:28;3.10;;;1.30;;
64936;SDS011;51452;47.698;19.050;2023-02-02T17:41:54;5.43;;;1.60;;
64936;SDS011;51452;47.698;19.050;2023-02-02T17:44:20;4.10;;;1.33;;
64936;SDS011;51452;47.698;19.050;2023-02-02T17:46:45;2.77;;;1.20;;
64936;SDS011;51452;47.698;19.050;2023-02-02T17:49:10;3.83;;;1.30;;
64936;SDS011;51452;47.698;19.050;2023-02-02T17:51:36;5.47;;;1.70;;
64936;SDS011;51452;47.698;19.050;2023-02-02T17:54:13;6.73;;;1.63;;
64936;SDS011;51452;47.698;19.050;2023-02-02T17:56:40;3.03;;;1.47;;
64936;SDS011;51452;47.698;19.050;2023-02-02T17:59:09;4.47;;;1.40;;
64936;SDS011;51452;47.698;19.050;2023-02-02T18:01:37;6.23;;;1.47;;
64936;SDS011;51452;47.698;19.050;2023-02-02T18:04:06;3.07;;;1.57;;